createdAt,value
2022-10-12T00:01:38.231Z,99586.00
2022-10-12T00:04:11.301Z,99595.00
2022-10-12T00:06:38.196Z,99605.00
2022-10-12T00:09:11.321Z,99599.00
2022-10-12T00:11:45.295Z,99601.00
2022-10-12T00:14:27.291Z,99600.00
2022-10-12T00:17:00.303Z,99596.00
2022-10-12T00:19:27.159Z,99590.00
2022-10-12T00:22:00.289Z,99583.00
2022-10-12T00:24:27.174Z,99597.00
2022-10-12T00:26:54.103Z,99599.00
2022-10-12T00:29:27.362Z,99598.00
2022-10-12T00:32:00.336Z,99602.00
2022-10-12T00:34:33.316Z,99597.00
2022-10-12T00:37:06.274Z,99601.00
2022-10-12T00:39:33.239Z,99598.00
2022-10-12T00:42:06.307Z,99600.00
2022-10-12T00:44:46.330Z,99603.00
2022-10-12T00:47:29.326Z,99604.00
2022-10-12T00:50:09.089Z,99606.00
2022-10-12T00:52:50.316Z,99604.00
2022-10-12T00:55:19.611Z,99591.00
2022-10-12T00:57:54.321Z,99595.00
2022-10-12T01:00:21.617Z,99603.00
2022-10-12T01:02:49.489Z,99610.00
2022-10-12T01:05:23.371Z,99593.00
2022-10-12T01:07:50.342Z,99606.00
2022-10-12T01:10:24.349Z,99612.00
2022-10-12T01:12:51.254Z,99588.00
2022-10-12T01:15:24.329Z,99606.00
2022-10-12T01:17:58.970Z,99610.00
2022-10-12T01:21:04.322Z,99612.00
2022-10-12T01:23:56.490Z,99601.00
2022-10-12T01:26:55.358Z,99598.00
2022-10-12T01:30:00.403Z,99616.00
2022-10-12T01:32:52.199Z,99604.00
2022-10-12T01:35:51.361Z,99605.00
2022-10-12T01:38:51.365Z,99605.00
2022-10-12T01:41:25.082Z,99592.00
2022-10-12T01:43:58.411Z,99597.00
2022-10-12T01:46:25.276Z,99592.00
2022-10-12T01:49:07.352Z,99599.00
2022-10-12T01:52:01.719Z,99593.00
2022-10-12T01:54:55.337Z,99592.00
2022-10-12T01:58:01.473Z,99589.00
2022-10-12T02:00:35.392Z,99594.00
2022-10-12T02:03:33.455Z,99591.00
2022-10-12T02:06:19.404Z,99582.00
2022-10-12T02:09:17.570Z,99585.00
2022-10-12T02:11:51.394Z,99575.00
2022-10-12T02:14:33.059Z,99593.00
2022-10-12T02:17:07.386Z,99587.00
2022-10-12T02:19:45.442Z,99579.00
2022-10-12T02:22:12.465Z,99570.00
2022-10-12T02:24:47.336Z,99568.00
2022-10-12T02:27:21.386Z,99569.00
2022-10-12T02:29:48.511Z,99569.00
2022-10-12T02:32:26.399Z,99564.00
2022-10-12T02:35:00.604Z,99568.00
2022-10-12T02:38:05.361Z,99563.00
2022-10-12T02:40:38.867Z,99568.00
2022-10-12T02:43:39.379Z,99556.00
2022-10-12T02:46:09.172Z,99556.00
2022-10-12T02:48:36.545Z,99562.00
2022-10-12T02:51:10.431Z,99554.00
2022-10-12T02:53:37.345Z,99560.00
2022-10-12T02:56:14.409Z,99566.00
2022-10-12T02:58:45.584Z,99547.00
2022-10-12T03:01:19.439Z,99565.00
2022-10-12T03:03:46.437Z,99560.00
2022-10-12T03:06:19.412Z,99564.00
2022-10-12T03:08:46.282Z,99569.00
2022-10-12T03:11:20.400Z,99570.00
2022-10-12T03:13:53.750Z,99579.00
2022-10-12T03:16:27.407Z,99565.00
2022-10-12T03:18:54.350Z,99546.00
2022-10-12T03:21:27.424Z,99560.00
2022-10-12T03:23:54.428Z,99560.00
2022-10-12T03:26:27.379Z,99549.00
2022-10-12T03:29:00.457Z,99548.00
2022-10-12T03:31:27.392Z,99568.00
2022-10-12T03:33:54.301Z,99557.00
2022-10-12T03:36:27.386Z,99571.00
2022-10-12T03:38:54.458Z,99538.00
2022-10-12T03:41:27.398Z,99554.00
2022-10-12T03:43:54.536Z,99568.00
2022-10-12T03:46:28.403Z,99566.00
2022-10-12T03:48:55.295Z,99549.00
2022-10-12T03:51:28.432Z,99556.00
2022-10-12T03:53:55.329Z,99556.00
2022-10-12T03:56:28.463Z,99542.00
2022-10-12T03:59:02.456Z,99576.00
2022-10-12T04:01:29.484Z,99581.00
2022-10-12T04:04:02.402Z,99567.00
2022-10-12T04:06:35.466Z,99565.00
2022-10-12T04:09:02.437Z,99567.00
2022-10-12T04:11:35.507Z,99567.00
2022-10-12T04:14:02.561Z,99575.00
2022-10-12T04:16:36.462Z,99562.00
2022-10-12T04:19:03.686Z,99557.00
2022-10-12T04:21:31.480Z,99548.00
2022-10-12T04:24:05.420Z,99562.00
2022-10-12T04:26:38.462Z,99563.00
2022-10-12T04:29:05.448Z,99570.00
2022-10-12T04:31:38.464Z,99564.00
2022-10-12T04:34:11.472Z,99547.00
2022-10-12T04:36:38.419Z,99569.00
2022-10-12T04:39:11.479Z,99578.00
2022-10-12T04:41:38.372Z,99588.00
2022-10-12T04:44:06.201Z,99569.00
2022-10-12T04:46:40.459Z,99578.00
2022-10-12T04:49:07.446Z,99574.00
2022-10-12T04:51:40.450Z,99575.00
2022-10-12T04:54:07.535Z,99574.00
2022-10-12T04:56:44.161Z,99579.00
2022-10-12T04:59:13.899Z,99556.00
2022-10-12T05:01:47.567Z,99572.00
2022-10-12T05:04:14.496Z,99557.00
2022-10-12T05:06:41.569Z,99579.00
2022-10-12T05:09:17.103Z,99584.00
2022-10-12T05:11:44.589Z,99584.00
2022-10-12T05:14:18.459Z,99582.00
2022-10-12T05:16:45.384Z,99595.00
2022-10-12T05:19:18.492Z,99592.00
2022-10-12T05:21:45.406Z,99582.00
2022-10-12T05:24:18.540Z,99598.00
2022-10-12T05:26:46.056Z,99601.00
2022-10-12T05:29:19.507Z,99589.00
2022-10-12T05:31:52.569Z,99604.00
2022-10-12T05:34:19.750Z,99603.00
2022-10-12T05:36:46.859Z,99595.00
2022-10-12T05:39:20.539Z,99591.00
2022-10-12T05:41:53.227Z,99599.00
2022-10-12T05:44:36.537Z,99592.00
2022-10-12T05:47:03.572Z,99609.00
2022-10-12T05:49:37.597Z,99624.00
2022-10-12T05:52:14.502Z,99612.00
2022-10-12T05:54:41.390Z,99629.00
2022-10-12T05:57:14.464Z,99634.00
2022-10-12T05:59:44.744Z,99640.00
2022-10-12T06:02:22.494Z,99622.00
2022-10-12T06:04:55.474Z,99640.00
2022-10-12T06:07:28.517Z,99644.00
2022-10-12T06:10:01.577Z,99646.00
2022-10-12T06:12:35.726Z,99642.00
2022-10-12T06:15:16.532Z,99640.00
2022-10-12T06:17:49.544Z,99643.00
2022-10-12T06:20:23.502Z,99648.00
2022-10-12T06:22:50.404Z,99652.00
2022-10-12T06:25:17.408Z,99643.00
2022-10-12T06:27:52.554Z,99651.00
2022-10-12T06:30:25.492Z,99653.00
2022-10-12T06:32:58.482Z,99644.00
2022-10-12T06:35:31.552Z,99639.00
2022-10-12T06:37:58.426Z,99645.00
2022-10-12T06:40:31.494Z,99631.00
2022-10-12T06:42:58.738Z,99616.00
2022-10-12T06:45:32.549Z,99628.00
2022-10-12T06:48:05.560Z,99644.00
2022-10-12T06:50:38.499Z,99631.00
2022-10-12T06:53:05.433Z,99637.00
2022-10-12T06:55:38.551Z,99635.00
2022-10-12T06:58:05.557Z,99620.00
2022-10-12T07:00:38.511Z,99641.00
2022-10-12T07:03:05.416Z,99637.00
2022-10-12T07:05:38.557Z,99639.00
2022-10-12T07:08:05.567Z,99643.00
2022-10-12T07:10:32.477Z,99639.00
2022-10-12T07:13:05.546Z,99636.00
2022-10-12T07:15:38.621Z,99648.00
2022-10-12T07:18:05.604Z,99639.00
2022-10-12T07:20:32.474Z,99647.00
2022-10-12T07:23:05.547Z,99645.00
2022-10-12T07:25:38.549Z,99640.00
2022-10-12T07:28:05.524Z,99640.00
2022-10-12T07:30:39.837Z,99634.00
2022-10-12T07:33:16.339Z,99638.00
2022-10-12T07:36:10.708Z,99644.00
2022-10-12T07:38:40.108Z,99642.00
2022-10-12T07:41:10.340Z,99626.00
2022-10-12T07:43:37.294Z,99620.00
2022-10-12T07:46:11.540Z,99622.00
2022-10-12T07:48:38.510Z,99616.00
2022-10-12T07:51:16.553Z,99630.00
2022-10-12T07:53:43.485Z,99635.00
2022-10-12T07:56:17.549Z,99639.00
2022-10-12T07:58:55.118Z,99635.00
2022-10-12T08:01:30.615Z,99637.00
2022-10-12T08:04:01.516Z,99632.00
2022-10-12T08:06:38.552Z,99647.00
2022-10-12T08:09:05.769Z,99636.00
2022-10-12T08:11:39.539Z,99644.00
2022-10-12T08:14:10.718Z,99647.00
2022-10-12T08:16:44.600Z,99647.00
2022-10-12T08:19:11.786Z,99651.00
2022-10-12T08:21:45.590Z,99649.00
2022-10-12T08:24:19.621Z,99648.00
2022-10-12T08:26:52.611Z,99657.00
2022-10-12T08:29:19.486Z,99659.00
2022-10-12T08:31:52.554Z,99662.00
2022-10-12T08:34:25.583Z,99655.00
2022-10-12T08:36:52.407Z,99665.00
2022-10-12T08:39:19.269Z,99662.00
2022-10-12T08:42:19.559Z,99664.00
2022-10-12T08:45:08.609Z,99674.00
2022-10-12T08:47:47.299Z,99668.00
2022-10-12T08:50:48.694Z,99663.00
2022-10-12T08:53:20.368Z,99660.00
2022-10-12T08:55:53.574Z,99664.00
2022-10-12T08:58:34.828Z,99662.00
2022-10-12T09:01:39.676Z,99662.00
2022-10-12T09:04:47.005Z,99657.00
2022-10-12T09:07:41.584Z,99669.00
2022-10-12T09:10:28.439Z,99672.00
2022-10-12T09:13:10.843Z,99664.00
2022-10-12T09:15:43.332Z,99649.00
2022-10-12T09:18:25.619Z,99664.00
2022-10-12T09:20:52.857Z,99652.00
2022-10-12T09:23:37.621Z,99641.00
2022-10-12T09:26:23.229Z,99653.00
2022-10-12T09:29:02.700Z,99657.00
2022-10-12T09:32:25.959Z,99664.00
2022-10-12T09:34:59.626Z,99657.00
2022-10-12T09:37:29.367Z,99657.00
2022-10-12T09:39:56.370Z,99662.00
2022-10-12T09:42:29.662Z,99655.00
2022-10-12T09:45:09.620Z,99659.00
2022-10-12T09:47:36.492Z,99655.00
2022-10-12T09:50:13.668Z,99657.00
2022-10-12T09:52:44.093Z,99662.00
2022-10-12T09:55:22.657Z,99665.00
2022-10-12T09:58:00.072Z,99656.00
2022-10-12T10:00:38.642Z,99656.00
2022-10-12T10:03:05.524Z,99649.00
2022-10-12T10:05:43.609Z,99649.00
2022-10-12T10:08:21.170Z,99652.00
2022-10-12T10:11:01.872Z,99652.00
2022-10-12T10:13:30.599Z,99657.00
2022-10-12T10:16:15.689Z,99657.00
2022-10-12T10:18:49.487Z,99647.00
2022-10-12T10:21:31.651Z,99647.00
2022-10-12T10:24:00.443Z,99651.00
2022-10-12T10:26:35.639Z,99647.00
2022-10-12T10:29:36.799Z,99654.00
2022-10-12T10:32:27.655Z,99653.00
2022-10-12T10:35:25.844Z,99641.00
2022-10-12T10:38:01.706Z,99633.00
2022-10-12T10:40:31.052Z,99641.00
2022-10-12T10:43:08.668Z,99655.00
2022-10-12T10:45:56.644Z,99648.00
2022-10-12T10:48:28.775Z,99649.00
2022-10-12T10:51:06.729Z,99657.00
2022-10-12T10:53:47.060Z,99647.00
2022-10-12T10:56:32.689Z,99650.00
2022-10-12T10:59:09.747Z,99645.00
2022-10-12T11:02:03.002Z,99645.00
2022-10-12T11:04:37.403Z,99651.00
2022-10-12T11:07:26.684Z,99644.00
2022-10-12T11:09:56.644Z,99645.00
2022-10-12T11:12:46.677Z,99633.00
2022-10-12T11:15:24.136Z,99647.00
2022-10-12T11:18:01.719Z,99640.00
2022-10-12T11:20:41.744Z,99633.00
2022-10-12T11:23:35.677Z,99639.00
2022-10-12T11:26:37.956Z,99632.00
2022-10-12T11:29:11.717Z,99629.00
2022-10-12T11:31:47.815Z,99631.00
2022-10-12T11:34:19.791Z,99633.00
2022-10-12T11:37:18.786Z,99627.00
2022-10-12T11:39:44.667Z,99631.00
2022-10-12T11:42:27.694Z,99615.00
2022-10-12T11:44:54.610Z,99611.00
2022-10-12T11:47:38.706Z,99623.00
2022-10-12T11:50:30.709Z,99620.00
2022-10-12T11:52:58.088Z,99609.00
2022-10-12T11:56:07.730Z,99612.00
2022-10-12T11:59:00.587Z,99598.00
2022-10-12T12:02:03.504Z,99600.00
2022-10-12T12:04:47.499Z,99594.00
2022-10-12T12:07:49.724Z,99604.00
2022-10-12T12:10:25.673Z,99593.00
2022-10-12T12:13:16.750Z,99593.00
2022-10-12T12:16:04.727Z,99592.00
2022-10-12T12:18:38.753Z,99590.00
2022-10-12T12:21:07.115Z,99596.00
2022-10-12T12:23:59.819Z,99596.00
2022-10-12T12:26:28.304Z,99584.00
2022-10-12T12:29:21.727Z,99579.00
2022-10-12T12:31:58.933Z,99578.00
2022-10-12T12:34:32.743Z,99583.00
2022-10-12T12:36:59.794Z,99572.00
2022-10-12T12:39:38.792Z,99563.00
2022-10-12T12:42:08.814Z,99563.00
2022-10-12T12:44:47.754Z,99562.00
2022-10-12T12:50:42.772Z,99564.00
2022-10-12T12:53:24.746Z,99560.00
2022-10-12T12:56:20.714Z,99557.00
2022-10-12T12:59:08.608Z,99553.00
2022-10-12T13:02:18.753Z,99547.00
2022-10-12T13:05:22.497Z,99551.00
2022-10-12T13:08:59.756Z,99552.00
2022-10-12T13:11:59.461Z,99546.00
2022-10-12T13:15:03.800Z,99537.00
2022-10-12T13:18:28.391Z,99541.00
2022-10-12T13:21:00.711Z,99535.00
2022-10-12T13:23:33.805Z,99540.00
2022-10-12T13:26:06.924Z,99526.00
2022-10-12T13:28:44.846Z,99537.00
2022-10-12T13:31:26.062Z,99536.00
2022-10-12T13:34:07.778Z,99532.00
2022-10-12T13:36:36.646Z,99536.00
2022-10-12T13:39:22.783Z,99531.00
2022-10-12T13:41:52.235Z,99515.00
2022-10-12T13:44:40.806Z,99525.00
2022-10-12T13:47:31.059Z,99529.00
2022-10-12T13:50:04.889Z,99533.00
2022-10-12T13:52:33.683Z,99524.00
2022-10-12T13:55:07.781Z,99521.00
2022-10-12T13:57:41.894Z,99526.00
2022-10-12T14:00:29.804Z,99523.00
2022-10-12T14:03:01.811Z,99524.00
2022-10-12T14:05:37.797Z,99512.00
2022-10-12T14:08:15.746Z,99514.00
2022-10-12T14:10:49.817Z,99528.00
2022-10-12T14:13:32.934Z,99505.00
2022-10-12T14:16:07.819Z,99509.00
2022-10-12T14:18:52.886Z,99507.00
2022-10-12T14:21:36.838Z,99505.00
2022-10-12T14:24:10.281Z,99504.00
2022-10-12T14:26:51.127Z,99513.00
2022-10-12T14:29:44.395Z,99510.00
2022-10-12T14:32:17.812Z,99511.00
2022-10-12T14:34:48.804Z,99495.00
2022-10-12T14:37:15.614Z,99503.00
2022-10-12T14:39:50.814Z,99490.00
2022-10-12T14:42:20.874Z,99501.00
2022-10-12T14:44:54.830Z,99492.00
2022-10-12T14:47:29.827Z,99492.00
2022-10-12T14:50:04.842Z,99498.00
2022-10-12T14:52:48.126Z,99489.00
2022-10-12T14:55:32.850Z,99496.00
2022-10-12T14:57:59.849Z,99495.00
2022-10-12T15:00:40.857Z,99491.00
2022-10-12T15:03:07.780Z,99492.00
2022-10-12T15:05:40.850Z,99490.00
2022-10-12T15:08:07.755Z,99503.00
2022-10-12T15:10:40.876Z,99495.00
2022-10-12T15:13:07.990Z,99502.00
2022-10-12T15:15:52.855Z,99498.00
2022-10-12T15:18:25.849Z,99496.00
2022-10-12T15:20:53.616Z,99495.00
2022-10-12T15:23:27.195Z,99502.00
2022-10-12T15:25:55.616Z,99499.00
2022-10-12T15:28:29.997Z,99497.00
2022-10-12T15:31:17.903Z,99492.00
2022-10-12T15:33:51.898Z,99494.00
2022-10-12T15:36:24.879Z,99495.00
2022-10-12T15:38:51.975Z,99483.00
2022-10-12T15:41:25.877Z,99483.00
2022-10-12T15:43:52.771Z,99483.00
2022-10-12T15:46:19.651Z,99477.00
2022-10-12T15:48:52.865Z,99487.00
2022-10-12T15:51:22.365Z,99482.00
2022-10-12T15:53:58.904Z,99493.00
2022-10-12T15:56:25.796Z,99488.00
2022-10-12T15:58:52.663Z,99483.00
2022-10-12T16:01:25.948Z,99496.00
2022-10-12T16:03:52.892Z,99486.00
2022-10-12T16:06:25.912Z,99483.00
2022-10-12T16:08:52.822Z,99492.00
2022-10-12T16:11:25.883Z,99489.00
2022-10-12T16:13:56.685Z,99491.00
2022-10-12T16:16:24.000Z,99488.00
2022-10-12T16:18:57.878Z,99490.00
2022-10-12T16:21:24.743Z,99488.00
2022-10-12T16:23:57.914Z,99490.00
2022-10-12T16:26:30.888Z,99495.00
2022-10-12T16:29:03.955Z,99501.00
2022-10-12T16:31:30.972Z,99501.00
2022-10-12T16:34:04.969Z,99501.00
2022-10-12T16:36:31.974Z,99511.00
2022-10-12T16:39:04.975Z,99497.00
2022-10-12T16:41:34.044Z,99499.00
2022-10-12T16:44:01.130Z,99503.00
2022-10-12T16:46:34.932Z,99513.00
2022-10-12T16:49:01.762Z,99506.00
2022-10-12T16:51:34.948Z,99497.00
2022-10-12T16:54:01.911Z,99512.00
2022-10-12T16:56:38.575Z,99502.00
2022-10-12T16:59:06.329Z,99513.00
2022-10-12T17:01:39.918Z,99512.00
2022-10-12T17:04:06.810Z,99515.00
2022-10-12T17:06:33.685Z,99517.00
2022-10-12T17:09:07.937Z,99521.00
2022-10-12T17:11:35.946Z,99520.00
2022-10-12T17:14:10.995Z,99507.00
2022-10-12T17:16:43.918Z,99525.00
2022-10-12T17:19:10.782Z,99525.00
2022-10-12T17:21:37.705Z,99524.00
2022-10-12T17:24:11.989Z,99533.00
2022-10-12T17:26:41.051Z,99527.00
2022-10-12T17:29:16.938Z,99524.00
2022-10-12T17:31:43.902Z,99526.00
2022-10-12T17:34:31.953Z,99543.00
2022-10-12T17:37:00.089Z,99538.00
2022-10-12T17:39:28.417Z,99530.00
2022-10-12T17:42:01.952Z,99530.00
2022-10-12T17:44:28.865Z,99539.00
2022-10-12T17:47:01.974Z,99536.00
2022-10-12T17:49:29.054Z,99547.00
2022-10-12T17:52:01.951Z,99552.00
2022-10-12T17:54:28.880Z,99550.00
2022-10-12T17:57:01.981Z,99545.00
2022-10-12T17:59:28.892Z,99550.00
2022-10-12T18:02:02.257Z,99550.00
2022-10-12T18:04:29.135Z,99552.00
2022-10-12T18:07:02.990Z,99545.00
2022-10-12T18:09:30.672Z,99551.00
2022-10-12T18:12:03.996Z,99556.00
2022-10-12T18:14:37.673Z,99564.00
2022-10-12T18:17:10.985Z,99570.00
2022-10-12T18:19:38.146Z,99566.00
2022-10-12T18:22:11.937Z,99566.00
2022-10-12T18:24:40.172Z,99560.00
2022-10-12T18:27:13.994Z,99570.00
2022-10-12T18:29:40.937Z,99576.00
2022-10-12T18:32:13.987Z,99570.00
2022-10-12T18:34:40.982Z,99575.00
2022-10-12T18:37:13.998Z,99576.00
2022-10-12T18:39:40.960Z,99564.00
2022-10-12T18:42:14.107Z,99563.00
2022-10-12T18:44:41.138Z,99574.00
2022-10-12T18:47:08.120Z,99571.00
2022-10-12T18:49:42.112Z,99567.00
2022-10-12T18:52:09.067Z,99573.00
2022-10-12T18:54:42.028Z,99563.00
2022-10-12T18:57:08.888Z,99568.00
2022-10-12T18:59:42.028Z,99563.00
2022-10-12T19:02:10.690Z,99578.00
2022-10-12T19:04:37.757Z,99585.00
2022-10-12T19:07:11.017Z,99584.00
2022-10-12T19:09:37.965Z,99580.00
2022-10-12T19:12:04.885Z,99583.00
2022-10-12T19:14:38.040Z,99576.00
2022-10-12T19:17:11.040Z,99573.00
2022-10-12T19:19:37.950Z,99566.00
2022-10-12T19:22:11.038Z,99583.00
2022-10-12T19:24:37.969Z,99577.00
2022-10-12T19:27:11.039Z,99574.00
2022-10-12T19:29:45.868Z,99584.00
2022-10-12T19:32:13.066Z,99586.00
2022-10-12T19:34:46.028Z,99574.00
2022-10-12T19:37:12.988Z,99587.00
2022-10-12T19:39:39.900Z,99581.00
2022-10-12T19:42:13.040Z,99580.00
2022-10-12T19:44:39.895Z,99587.00
2022-10-12T19:47:13.042Z,99576.00
2022-10-12T19:49:44.477Z,99592.00
2022-10-12T19:52:19.427Z,99598.00
2022-10-12T19:54:46.668Z,99599.00
2022-10-12T19:57:20.076Z,99602.00
2022-10-12T19:59:46.969Z,99598.00
2022-10-12T20:02:20.405Z,99613.00
2022-10-12T20:04:47.554Z,99606.00
2022-10-12T20:07:21.050Z,99602.00
2022-10-12T20:09:47.894Z,99613.00
2022-10-12T20:12:14.948Z,99621.00
2022-10-12T20:14:48.077Z,99615.00
2022-10-12T20:17:14.970Z,99624.00
2022-10-12T20:19:48.031Z,99631.00
2022-10-12T20:22:15.201Z,99637.00
2022-10-12T20:24:49.026Z,99631.00
2022-10-12T20:27:15.888Z,99637.00
2022-10-12T20:29:42.746Z,99624.00
2022-10-12T20:32:16.257Z,99636.00
2022-10-12T20:34:43.445Z,99633.00
2022-10-12T20:37:17.055Z,99640.00
2022-10-12T20:39:44.015Z,99642.00
2022-10-12T20:42:21.435Z,99621.00
2022-10-12T20:44:55.075Z,99643.00
2022-10-12T20:47:28.095Z,99642.00
2022-10-12T20:49:54.945Z,99635.00
2022-10-12T20:52:22.025Z,99625.00
2022-10-12T20:54:58.465Z,99613.00
2022-10-12T20:57:25.499Z,99630.00
2022-10-12T21:00:04.318Z,99635.00
2022-10-12T21:02:31.407Z,99644.00
2022-10-12T21:05:05.144Z,99643.00
2022-10-12T21:07:38.448Z,99641.00
2022-10-12T21:10:06.392Z,99647.00
2022-10-12T21:12:40.802Z,99643.00
2022-10-12T21:15:09.148Z,99640.00
2022-10-12T21:17:36.370Z,99641.00
2022-10-12T21:20:10.320Z,99632.00
2022-10-12T21:22:37.325Z,99637.00
2022-10-12T21:25:11.285Z,99639.00
2022-10-12T21:27:45.090Z,99635.00
2022-10-12T21:30:19.185Z,99645.00
2022-10-12T21:32:46.309Z,99647.00
2022-10-12T21:35:20.124Z,99638.00
2022-10-12T21:37:47.061Z,99647.00
2022-10-12T21:40:21.172Z,99647.00
2022-10-12T21:42:48.137Z,99650.00
2022-10-12T21:45:22.316Z,99652.00
2022-10-12T21:47:49.442Z,99652.00
2022-10-12T21:50:23.175Z,99654.00
2022-10-12T21:52:50.311Z,99642.00
2022-10-12T21:55:24.129Z,99636.00
2022-10-12T21:57:51.070Z,99645.00
2022-10-12T22:00:18.897Z,99641.00
2022-10-12T22:02:52.188Z,99622.00
2022-10-12T22:05:19.244Z,99625.00
2022-10-12T22:07:53.147Z,99642.00
2022-10-12T22:10:20.180Z,99634.00
2022-10-12T22:12:54.164Z,99637.00
2022-10-12T22:15:27.241Z,99637.00
2022-10-12T22:17:54.187Z,99651.00
2022-10-12T22:20:28.225Z,99651.00
2022-10-12T22:22:55.252Z,99643.00
2022-10-12T22:25:29.250Z,99640.00
2022-10-12T22:28:02.254Z,99649.00
2022-10-12T22:30:29.247Z,99633.00
2022-10-12T22:33:03.232Z,99641.00
2022-10-12T22:35:37.262Z,99649.00
2022-10-12T22:38:11.252Z,99651.00
2022-10-12T22:40:38.289Z,99652.00
2022-10-12T22:43:12.270Z,99650.00
2022-10-12T22:45:39.495Z,99655.00
2022-10-12T22:48:13.229Z,99639.00
2022-10-12T22:50:40.249Z,99638.00
2022-10-12T22:53:13.249Z,99633.00
2022-10-12T22:55:47.245Z,99637.00
2022-10-12T22:58:21.257Z,99648.00
2022-10-12T23:09:14.627Z,99649.00
2022-10-12T23:11:48.229Z,99653.00
2022-10-12T23:14:15.063Z,99646.00
2022-10-12T23:16:41.967Z,99647.00
2022-10-12T23:19:16.318Z,99651.00
2022-10-12T23:21:43.260Z,99635.00
2022-10-12T23:24:17.161Z,99635.00
2022-10-12T23:26:44.077Z,99642.00
2022-10-12T23:29:17.182Z,99634.00
2022-10-12T23:31:44.022Z,99649.00
2022-10-12T23:34:17.209Z,99643.00
2022-10-12T23:36:44.057Z,99637.00
2022-10-12T23:39:17.189Z,99639.00
2022-10-12T23:41:44.202Z,99638.00
2022-10-12T23:44:11.284Z,99639.00
2022-10-12T23:46:44.206Z,99619.00
2022-10-12T23:49:11.059Z,99638.00
2022-10-12T23:51:37.982Z,99638.00
2022-10-12T23:54:11.186Z,99624.00
2022-10-12T23:56:38.002Z,99633.00
2022-10-12T23:59:11.199Z,99635.00
